Hortonville, Wisconsin
Current Conditions -  °F | °C
As of 9:45 PM on Friday 28 Nov 2014 (Local Time) from KATW Reporting Station
Overcast Overcast  
Wind Chill: 21°   Ceiling: 1300
Heat Index: 27°   Visibility: 10mi
Dew Point: 21°   Wind: 5mph
Humidity: 80%   Direction: 150°SSE
Pressure: 29.89"   Gusts: NA
Location:  44.33°N, 88.64°W
Report Text: KATW 290345Z 15004KT 10SM OVC013 M03/M06 A2989
Loading
Personal Weather Stations






























Interactive Weather Map New forecast layout! Learn more

10-Day Weather Forecast

Advertisements
Track Severe Weather on mobile